sensor_id;sensor_type;location;lat;lon;timestamp;temperature;humidity
22680;DHT22;11507;44.858;10.374;2022-07-06T00:01:19;23.60;99.90
22680;DHT22;11507;44.858;10.374;2022-07-06T00:03:46;23.70;99.90
22680;DHT22;11507;44.858;10.374;2022-07-06T00:06:12;23.60;99.90
22680;DHT22;11507;44.858;10.374;2022-07-06T00:08:38;23.70;99.90
22680;DHT22;11507;44.858;10.374;2022-07-06T00:11:05;23.70;99.90
22680;DHT22;11507;44.858;10.374;2022-07-06T00:13:31;23.70;99.90
22680;DHT22;11507;44.858;10.374;2022-07-06T00:15:57;23.70;99.90
22680;DHT22;11507;44.858;10.374;2022-07-06T00:18:23;23.70;99.90
22680;DHT22;11507;44.858;10.374;2022-07-06T00:20:49;23.70;99.90
22680;DHT22;11507;44.858;10.374;2022-07-06T00:23:15;23.70;99.90
22680;DHT22;11507;44.858;10.374;2022-07-06T00:25:41;23.70;99.90
22680;DHT22;11507;44.858;10.374;2022-07-06T00:28:07;23.70;99.90
22680;DHT22;11507;44.858;10.374;2022-07-06T00:30:34;23.70;99.90
22680;DHT22;11507;44.858;10.374;2022-07-06T00:33:00;23.70;99.90
22680;DHT22;11507;44.858;10.374;2022-07-06T00:35:27;23.70;99.90
22680;DHT22;11507;44.858;10.374;2022-07-06T00:37:54;23.70;99.90
22680;DHT22;11507;44.858;10.374;2022-07-06T00:40:20;23.70;99.90
22680;DHT22;11507;44.858;10.374;2022-07-06T00:42:48;23.70;99.90
22680;DHT22;11507;44.858;10.374;2022-07-06T00:45:15;23.70;99.90
22680;DHT22;11507;44.858;10.374;2022-07-06T00:47:42;23.70;99.90
22680;DHT22;11507;44.858;10.374;2022-07-06T00:50:10;23.80;99.90
22680;DHT22;11507;44.858;10.374;2022-07-06T00:52:50;23.80;99.90
22680;DHT22;11507;44.858;10.374;2022-07-06T00:55:19;23.80;99.90
22680;DHT22;11507;44.858;10.374;2022-07-06T00:57:46;23.90;99.90
22680;DHT22;11507;44.858;10.374;2022-07-06T01:00:15;23.90;99.90
22680;DHT22;11507;44.858;10.374;2022-07-06T01:02:42;23.90;99.90
22680;DHT22;11507;44.858;10.374;2022-07-06T01:05:10;24.00;99.90
22680;DHT22;11507;44.858;10.374;2022-07-06T01:07:38;23.90;99.90
22680;DHT22;11507;44.858;10.374;2022-07-06T01:10:05;23.90;99.90
22680;DHT22;11507;44.858;10.374;2022-07-06T01:12:31;23.90;99.90
22680;DHT22;11507;44.858;10.374;2022-07-06T01:15:00;23.90;99.90
22680;DHT22;11507;44.858;10.374;2022-07-06T01:17:26;23.90;99.90
22680;DHT22;11507;44.858;10.374;2022-07-06T01:19:52;23.90;99.90
22680;DHT22;11507;44.858;10.374;2022-07-06T01:22:18;23.80;99.90
22680;DHT22;11507;44.858;10.374;2022-07-06T01:24:44;23.80;99.90
22680;DHT22;11507;44.858;10.374;2022-07-06T01:27:10;23.80;99.90
22680;DHT22;11507;44.858;10.374;2022-07-06T01:29:38;23.80;99.90
22680;DHT22;11507;44.858;10.374;2022-07-06T01:32:04;23.70;99.90
22680;DHT22;11507;44.858;10.374;2022-07-06T01:34:30;23.70;99.90
22680;DHT22;11507;44.858;10.374;2022-07-06T01:36:56;23.70;99.90
22680;DHT22;11507;44.858;10.374;2022-07-06T01:39:22;23.60;99.90
22680;DHT22;11507;44.858;10.374;2022-07-06T01:41:48;23.60;99.90
22680;DHT22;11507;44.858;10.374;2022-07-06T01:44:14;23.50;99.90
22680;DHT22;11507;44.858;10.374;2022-07-06T01:46:40;23.50;99.90
22680;DHT22;11507;44.858;10.374;2022-07-06T01:49:08;23.40;99.90
22680;DHT22;11507;44.858;10.374;2022-07-06T01:51:34;23.40;99.90
22680;DHT22;11507;44.858;10.374;2022-07-06T01:54:00;23.30;99.90
22680;DHT22;11507;44.858;10.374;2022-07-06T01:56:27;23.30;99.90
22680;DHT22;11507;44.858;10.374;2022-07-06T01:58:59;23.30;99.90
22680;DHT22;11507;44.858;10.374;2022-07-06T02:01:26;23.20;99.90
22680;DHT22;11507;44.858;10.374;2022-07-06T02:03:52;23.20;99.90
22680;DHT22;11507;44.858;10.374;2022-07-06T02:06:19;23.20;99.90
22680;DHT22;11507;44.858;10.374;2022-07-06T02:08:47;23.20;99.90
22680;DHT22;11507;44.858;10.374;2022-07-06T02:11:14;23.10;99.90
22680;DHT22;11507;44.858;10.374;2022-07-06T02:13:42;23.00;99.90
22680;DHT22;11507;44.858;10.374;2022-07-06T02:16:10;23.00;99.90
22680;DHT22;11507;44.858;10.374;2022-07-06T02:18:36;22.90;99.90
22680;DHT22;11507;44.858;10.374;2022-07-06T02:21:04;22.90;99.90
22680;DHT22;11507;44.858;10.374;2022-07-06T02:23:32;22.90;99.90
22680;DHT22;11507;44.858;10.374;2022-07-06T02:25:59;22.80;99.90
22680;DHT22;11507;44.858;10.374;2022-07-06T02:28:25;22.80;99.90
22680;DHT22;11507;44.858;10.374;2022-07-06T02:30:51;22.80;99.90
22680;DHT22;11507;44.858;10.374;2022-07-06T02:33:17;22.80;99.90
22680;DHT22;11507;44.858;10.374;2022-07-06T02:35:44;22.70;99.90
22680;DHT22;11507;44.858;10.374;2022-07-06T02:38:11;22.70;99.90
22680;DHT22;11507;44.858;10.374;2022-07-06T02:40:38;22.70;99.90
22680;DHT22;11507;44.858;10.374;2022-07-06T02:43:04;22.70;99.90
22680;DHT22;11507;44.858;10.374;2022-07-06T02:45:31;22.60;99.90
22680;DHT22;11507;44.858;10.374;2022-07-06T02:47:58;22.50;99.90
22680;DHT22;11507;44.858;10.374;2022-07-06T02:50:25;22.50;99.90
22680;DHT22;11507;44.858;10.374;2022-07-06T02:52:53;22.50;99.90
22680;DHT22;11507;44.858;10.374;2022-07-06T02:55:21;22.40;99.90
22680;DHT22;11507;44.858;10.374;2022-07-06T02:57:48;22.40;99.90
22680;DHT22;11507;44.858;10.374;2022-07-06T03:00:15;22.30;99.90
22680;DHT22;11507;44.858;10.374;2022-07-06T03:02:42;22.30;99.90
22680;DHT22;11507;44.858;10.374;2022-07-06T03:05:09;22.20;99.90
22680;DHT22;11507;44.858;10.374;2022-07-06T03:07:35;22.20;99.90
22680;DHT22;11507;44.858;10.374;2022-07-06T03:10:01;22.10;99.90
22680;DHT22;11507;44.858;10.374;2022-07-06T03:12:27;22.10;99.90
22680;DHT22;11507;44.858;10.374;2022-07-06T03:14:55;22.10;99.90
22680;DHT22;11507;44.858;10.374;2022-07-06T03:17:22;22.10;99.90
22680;DHT22;11507;44.858;10.374;2022-07-06T03:19:48;22.10;99.90
22680;DHT22;11507;44.858;10.374;2022-07-06T03:22:14;22.10;99.90
22680;DHT22;11507;44.858;10.374;2022-07-06T03:24:41;22.00;99.90
22680;DHT22;11507;44.858;10.374;2022-07-06T03:27:08;22.10;99.90
22680;DHT22;11507;44.858;10.374;2022-07-06T03:29:35;22.10;99.90
22680;DHT22;11507;44.858;10.374;2022-07-06T03:32:04;22.10;99.90
22680;DHT22;11507;44.858;10.374;2022-07-06T03:34:32;22.10;99.90
22680;DHT22;11507;44.858;10.374;2022-07-06T03:36:58;22.00;99.90
22680;DHT22;11507;44.858;10.374;2022-07-06T03:39:24;22.00;99.90
22680;DHT22;11507;44.858;10.374;2022-07-06T03:41:50;21.90;99.90
22680;DHT22;11507;44.858;10.374;2022-07-06T03:44:17;21.90;99.90
22680;DHT22;11507;44.858;10.374;2022-07-06T03:46:43;21.90;99.90
22680;DHT22;11507;44.858;10.374;2022-07-06T03:49:09;21.90;99.90
22680;DHT22;11507;44.858;10.374;2022-07-06T03:51:36;21.90;99.90
22680;DHT22;11507;44.858;10.374;2022-07-06T03:54:03;21.90;99.90
22680;DHT22;11507;44.858;10.374;2022-07-06T03:56:30;21.90;99.90
22680;DHT22;11507;44.858;10.374;2022-07-06T03:59:04;21.90;99.90
22680;DHT22;11507;44.858;10.374;2022-07-06T04:01:40;21.90;99.90
22680;DHT22;11507;44.858;10.374;2022-07-06T04:04:12;21.90;99.90
22680;DHT22;11507;44.858;10.374;2022-07-06T04:06:42;22.00;99.90
22680;DHT22;11507;44.858;10.374;2022-07-06T04:09:08;22.00;99.90
22680;DHT22;11507;44.858;10.374;2022-07-06T04:11:35;22.10;99.90
22680;DHT22;11507;44.858;10.374;2022-07-06T04:14:02;22.10;99.90
22680;DHT22;11507;44.858;10.374;2022-07-06T04:16:28;22.10;99.90
22680;DHT22;11507;44.858;10.374;2022-07-06T04:18:56;22.10;99.90
22680;DHT22;11507;44.858;10.374;2022-07-06T04:21:23;22.10;99.90
22680;DHT22;11507;44.858;10.374;2022-07-06T04:23:49;22.20;99.90
22680;DHT22;11507;44.858;10.374;2022-07-06T04:26:15;22.20;99.90
22680;DHT22;11507;44.858;10.374;2022-07-06T04:32:00;22.40;99.90
22680;DHT22;11507;44.858;10.374;2022-07-06T04:34:26;22.40;99.90
22680;DHT22;11507;44.858;10.374;2022-07-06T04:36:52;22.40;99.90
22680;DHT22;11507;44.858;10.374;2022-07-06T04:39:18;22.40;99.90
22680;DHT22;11507;44.858;10.374;2022-07-06T04:41:44;22.40;99.90
22680;DHT22;11507;44.858;10.374;2022-07-06T04:44:09;22.40;99.90
22680;DHT22;11507;44.858;10.374;2022-07-06T04:46:35;22.50;99.90
22680;DHT22;11507;44.858;10.374;2022-07-06T04:49:04;22.50;99.90
22680;DHT22;11507;44.858;10.374;2022-07-06T04:51:30;22.50;99.90
22680;DHT22;11507;44.858;10.374;2022-07-06T04:53:58;22.60;99.90
22680;DHT22;11507;44.858;10.374;2022-07-06T04:56:24;22.70;99.90
22680;DHT22;11507;44.858;10.374;2022-07-06T04:58:49;22.70;99.90
22680;DHT22;11507;44.858;10.374;2022-07-06T05:01:18;22.80;99.90
22680;DHT22;11507;44.858;10.374;2022-07-06T05:03:45;22.80;99.90
22680;DHT22;11507;44.858;10.374;2022-07-06T05:06:13;22.80;99.90
22680;DHT22;11507;44.858;10.374;2022-07-06T05:08:39;23.00;99.90
22680;DHT22;11507;44.858;10.374;2022-07-06T05:11:05;23.00;99.90
22680;DHT22;11507;44.858;10.374;2022-07-06T05:13:32;23.10;99.90
22680;DHT22;11507;44.858;10.374;2022-07-06T05:15:58;23.20;99.90
22680;DHT22;11507;44.858;10.374;2022-07-06T05:18:24;23.30;99.90
22680;DHT22;11507;44.858;10.374;2022-07-06T05:20:50;23.40;99.90
22680;DHT22;11507;44.858;10.374;2022-07-06T05:23:16;23.50;99.90
22680;DHT22;11507;44.858;10.374;2022-07-06T05:25:42;23.50;99.90
22680;DHT22;11507;44.858;10.374;2022-07-06T05:28:08;23.60;99.90
22680;DHT22;11507;44.858;10.374;2022-07-06T05:30:34;23.60;99.90
22680;DHT22;11507;44.858;10.374;2022-07-06T05:33:00;23.60;99.90
22680;DHT22;11507;44.858;10.374;2022-07-06T05:35:26;23.60;99.90
22680;DHT22;11507;44.858;10.374;2022-07-06T05:37:53;23.50;99.90
22680;DHT22;11507;44.858;10.374;2022-07-06T05:40:19;23.50;99.90
22680;DHT22;11507;44.858;10.374;2022-07-06T05:42:45;23.50;99.90
22680;DHT22;11507;44.858;10.374;2022-07-06T05:45:11;23.50;99.90
22680;DHT22;11507;44.858;10.374;2022-07-06T05:47:37;23.50;99.90
22680;DHT22;11507;44.858;10.374;2022-07-06T05:50:21;23.50;99.90
22680;DHT22;11507;44.858;10.374;2022-07-06T05:53:00;23.50;99.90
22680;DHT22;11507;44.858;10.374;2022-07-06T05:55:28;23.60;99.90
22680;DHT22;11507;44.858;10.374;2022-07-06T05:57:56;23.70;99.90
22680;DHT22;11507;44.858;10.374;2022-07-06T06:00:26;23.80;99.90
22680;DHT22;11507;44.858;10.374;2022-07-06T06:02:55;23.80;99.90
22680;DHT22;11507;44.858;10.374;2022-07-06T06:05:24;23.80;99.90
22680;DHT22;11507;44.858;10.374;2022-07-06T06:07:54;23.80;99.90
22680;DHT22;11507;44.858;10.374;2022-07-06T06:10:23;23.90;99.90
22680;DHT22;11507;44.858;10.374;2022-07-06T06:12:52;24.20;99.90
22680;DHT22;11507;44.858;10.374;2022-07-06T06:15:19;24.50;99.90
22680;DHT22;11507;44.858;10.374;2022-07-06T06:17:45;24.60;99.90
22680;DHT22;11507;44.858;10.374;2022-07-06T06:20:13;24.90;99.90
22680;DHT22;11507;44.858;10.374;2022-07-06T06:22:51;24.90;99.90
22680;DHT22;11507;44.858;10.374;2022-07-06T06:25:19;24.80;99.90
22680;DHT22;11507;44.858;10.374;2022-07-06T06:27:45;24.70;99.90
22680;DHT22;11507;44.858;10.374;2022-07-06T06:30:13;24.80;99.90
22680;DHT22;11507;44.858;10.374;2022-07-06T06:32:39;24.80;99.90
22680;DHT22;11507;44.858;10.374;2022-07-06T06:35:06;25.00;99.90
22680;DHT22;11507;44.858;10.374;2022-07-06T06:37:32;25.00;99.90
22680;DHT22;11507;44.858;10.374;2022-07-06T06:40:00;24.90;99.90
22680;DHT22;11507;44.858;10.374;2022-07-06T06:42:25;24.80;99.90
22680;DHT22;11507;44.858;10.374;2022-07-06T06:44:51;24.80;99.90
22680;DHT22;11507;44.858;10.374;2022-07-06T06:47:18;24.90;99.90
22680;DHT22;11507;44.858;10.374;2022-07-06T06:49:45;24.80;99.90
22680;DHT22;11507;44.858;10.374;2022-07-06T06:52:11;24.90;99.90
22680;DHT22;11507;44.858;10.374;2022-07-06T06:54:36;24.90;99.90
22680;DHT22;11507;44.858;10.374;2022-07-06T06:57:03;25.00;99.90
22680;DHT22;11507;44.858;10.374;2022-07-06T06:59:29;25.10;99.90
22680;DHT22;11507;44.858;10.374;2022-07-06T07:01:55;25.30;99.90
22680;DHT22;11507;44.858;10.374;2022-07-06T07:04:21;25.30;99.90
22680;DHT22;11507;44.858;10.374;2022-07-06T07:06:48;25.40;99.90
22680;DHT22;11507;44.858;10.374;2022-07-06T07:09:13;25.50;99.90
22680;DHT22;11507;44.858;10.374;2022-07-06T07:11:39;25.70;99.90
22680;DHT22;11507;44.858;10.374;2022-07-06T07:14:05;26.00;99.90
22680;DHT22;11507;44.858;10.374;2022-07-06T07:16:31;26.30;99.90
22680;DHT22;11507;44.858;10.374;2022-07-06T07:18:57;26.50;99.90
22680;DHT22;11507;44.858;10.374;2022-07-06T07:21:22;26.70;99.90
22680;DHT22;11507;44.858;10.374;2022-07-06T07:23:48;26.80;99.90
22680;DHT22;11507;44.858;10.374;2022-07-06T07:26:16;26.90;99.90
22680;DHT22;11507;44.858;10.374;2022-07-06T07:28:42;27.00;99.90
22680;DHT22;11507;44.858;10.374;2022-07-06T07:31:09;27.00;99.90
22680;DHT22;11507;44.858;10.374;2022-07-06T07:33:34;27.10;99.90
22680;DHT22;11507;44.858;10.374;2022-07-06T07:36:02;27.40;99.90
22680;DHT22;11507;44.858;10.374;2022-07-06T07:38:28;27.60;99.90
22680;DHT22;11507;44.858;10.374;2022-07-06T07:40:53;27.70;99.90
22680;DHT22;11507;44.858;10.374;2022-07-06T07:43:20;27.80;99.90
22680;DHT22;11507;44.858;10.374;2022-07-06T07:45:47;27.90;99.90
22680;DHT22;11507;44.858;10.374;2022-07-06T07:48:14;28.00;99.90
22680;DHT22;11507;44.858;10.374;2022-07-06T07:50:41;28.20;99.90
22680;DHT22;11507;44.858;10.374;2022-07-06T07:53:07;28.30;99.90
22680;DHT22;11507;44.858;10.374;2022-07-06T07:55:33;28.40;99.90
22680;DHT22;11507;44.858;10.374;2022-07-06T07:57:59;28.70;99.90
22680;DHT22;11507;44.858;10.374;2022-07-06T08:00:26;29.00;99.90
22680;DHT22;11507;44.858;10.374;2022-07-06T08:02:53;29.10;99.90
22680;DHT22;11507;44.858;10.374;2022-07-06T08:05:21;29.30;99.90
22680;DHT22;11507;44.858;10.374;2022-07-06T08:07:48;29.50;99.90
22680;DHT22;11507;44.858;10.374;2022-07-06T08:10:14;29.80;99.90
22680;DHT22;11507;44.858;10.374;2022-07-06T08:12:42;29.80;99.90
22680;DHT22;11507;44.858;10.374;2022-07-06T08:15:08;30.00;99.90
22680;DHT22;11507;44.858;10.374;2022-07-06T08:17:34;30.10;99.10
22680;DHT22;11507;44.858;10.374;2022-07-06T08:20:00;30.30;99.80
22680;DHT22;11507;44.858;10.374;2022-07-06T08:22:26;30.60;99.50
22680;DHT22;11507;44.858;10.374;2022-07-06T08:24:52;30.60;98.50
22680;DHT22;11507;44.858;10.374;2022-07-06T08:27:18;30.70;99.20
22680;DHT22;11507;44.858;10.374;2022-07-06T08:29:45;30.90;99.60
22680;DHT22;11507;44.858;10.374;2022-07-06T08:32:11;31.00;97.80
22680;DHT22;11507;44.858;10.374;2022-07-06T08:34:36;31.10;97.90
22680;DHT22;11507;44.858;10.374;2022-07-06T08:37:02;31.20;97.00
22680;DHT22;11507;44.858;10.374;2022-07-06T08:39:28;30.80;97.20
22680;DHT22;11507;44.858;10.374;2022-07-06T08:41:55;30.70;98.30
22680;DHT22;11507;44.858;10.374;2022-07-06T08:44:23;30.60;97.60
22680;DHT22;11507;44.858;10.374;2022-07-06T08:46:52;30.60;97.80
22680;DHT22;11507;44.858;10.374;2022-07-06T08:49:19;30.60;98.50
22680;DHT22;11507;44.858;10.374;2022-07-06T08:51:46;30.80;97.20
22680;DHT22;11507;44.858;10.374;2022-07-06T08:54:13;31.00;98.10
22680;DHT22;11507;44.858;10.374;2022-07-06T08:56:40;31.00;97.10
22680;DHT22;11507;44.858;10.374;2022-07-06T08:59:06;31.30;97.30
22680;DHT22;11507;44.858;10.374;2022-07-06T09:01:35;31.40;95.70
22680;DHT22;11507;44.858;10.374;2022-07-06T09:04:05;31.50;96.10
22680;DHT22;11507;44.858;10.374;2022-07-06T09:06:33;31.70;96.20
22680;DHT22;11507;44.858;10.374;2022-07-06T09:09:05;31.80;95.70
22680;DHT22;11507;44.858;10.374;2022-07-06T09:11:32;32.10;95.50
22680;DHT22;11507;44.858;10.374;2022-07-06T09:13:58;32.10;95.00
22680;DHT22;11507;44.858;10.374;2022-07-06T09:16:29;32.20;93.80
22680;DHT22;11507;44.858;10.374;2022-07-06T09:18:55;32.20;94.60
22680;DHT22;11507;44.858;10.374;2022-07-06T09:21:39;32.40;94.60
22680;DHT22;11507;44.858;10.374;2022-07-06T09:24:10;32.70;94.40
22680;DHT22;11507;44.858;10.374;2022-07-06T09:26:37;32.90;93.70
22680;DHT22;11507;44.858;10.374;2022-07-06T09:29:04;33.00;92.40
22680;DHT22;11507;44.858;10.374;2022-07-06T09:31:31;33.00;92.50
22680;DHT22;11507;44.858;10.374;2022-07-06T09:34:00;32.90;92.50
22680;DHT22;11507;44.858;10.374;2022-07-06T09:36:44;32.80;92.10
22680;DHT22;11507;44.858;10.374;2022-07-06T09:39:19;32.90;92.80
22680;DHT22;11507;44.858;10.374;2022-07-06T09:41:48;33.10;92.00
22680;DHT22;11507;44.858;10.374;2022-07-06T09:44:20;32.90;92.20
22680;DHT22;11507;44.858;10.374;2022-07-06T09:46:48;33.20;92.40
22680;DHT22;11507;44.858;10.374;2022-07-06T09:49:21;33.30;91.30
22680;DHT22;11507;44.858;10.374;2022-07-06T09:51:51;33.60;92.50
22680;DHT22;11507;44.858;10.374;2022-07-06T09:54:17;33.80;91.80
22680;DHT22;11507;44.858;10.374;2022-07-06T09:56:45;33.80;91.30
22680;DHT22;11507;44.858;10.374;2022-07-06T09:59:20;34.10;92.30
22680;DHT22;11507;44.858;10.374;2022-07-06T10:01:47;34.30;90.90
22680;DHT22;11507;44.858;10.374;2022-07-06T10:04:16;34.50;90.40
22680;DHT22;11507;44.858;10.374;2022-07-06T10:06:44;34.70;91.30
22680;DHT22;11507;44.858;10.374;2022-07-06T10:09:12;34.80;91.00
22680;DHT22;11507;44.858;10.374;2022-07-06T10:11:51;34.80;90.30
22680;DHT22;11507;44.858;10.374;2022-07-06T10:14:21;35.00;90.40
22680;DHT22;11507;44.858;10.374;2022-07-06T10:16:49;35.40;89.90
22680;DHT22;11507;44.858;10.374;2022-07-06T10:19:16;35.70;90.40
22680;DHT22;11507;44.858;10.374;2022-07-06T10:21:43;35.50;86.90
22680;DHT22;11507;44.858;10.374;2022-07-06T10:24:10;35.60;90.00
22680;DHT22;11507;44.858;10.374;2022-07-06T10:26:38;35.80;88.70
22680;DHT22;11507;44.858;10.374;2022-07-06T10:29:06;36.00;87.10
22680;DHT22;11507;44.858;10.374;2022-07-06T10:31:34;36.10;87.20
22680;DHT22;11507;44.858;10.374;2022-07-06T10:34:05;36.30;87.40
22680;DHT22;11507;44.858;10.374;2022-07-06T10:36:37;36.60;89.70
22680;DHT22;11507;44.858;10.374;2022-07-06T10:39:03;36.90;88.00
22680;DHT22;11507;44.858;10.374;2022-07-06T10:41:51;37.00;83.10
22680;DHT22;11507;44.858;10.374;2022-07-06T10:44:23;37.00;80.40
22680;DHT22;11507;44.858;10.374;2022-07-06T10:46:54;36.50;82.60
22680;DHT22;11507;44.858;10.374;2022-07-06T10:49:22;36.40;84.80
22680;DHT22;11507;44.858;10.374;2022-07-06T10:51:49;36.50;83.90
22680;DHT22;11507;44.858;10.374;2022-07-06T10:54:16;36.60;84.70
22680;DHT22;11507;44.858;10.374;2022-07-06T10:56:48;37.00;83.60
22680;DHT22;11507;44.858;10.374;2022-07-06T10:59:17;37.30;85.10
22680;DHT22;11507;44.858;10.374;2022-07-06T11:04:43;37.50;78.70
22680;DHT22;11507;44.858;10.374;2022-07-06T11:07:14;37.60;81.80
22680;DHT22;11507;44.858;10.374;2022-07-06T11:09:41;37.60;82.80
22680;DHT22;11507;44.858;10.374;2022-07-06T11:12:20;37.70;79.20
22680;DHT22;11507;44.858;10.374;2022-07-06T11:14:48;37.80;79.50
22680;DHT22;11507;44.858;10.374;2022-07-06T11:17:15;38.10;81.40
22680;DHT22;11507;44.858;10.374;2022-07-06T11:20:09;38.30;79.70
22680;DHT22;11507;44.858;10.374;2022-07-06T11:22:37;38.50;77.90
22680;DHT22;11507;44.858;10.374;2022-07-06T11:25:05;38.40;74.90
22680;DHT22;11507;44.858;10.374;2022-07-06T11:27:33;38.20;74.10
22680;DHT22;11507;44.858;10.374;2022-07-06T11:30:01;38.00;74.70
22680;DHT22;11507;44.858;10.374;2022-07-06T11:32:27;37.90;76.70
22680;DHT22;11507;44.858;10.374;2022-07-06T11:34:54;38.10;79.00
22680;DHT22;11507;44.858;10.374;2022-07-06T11:37:20;38.40;74.00
22680;DHT22;11507;44.858;10.374;2022-07-06T11:39:47;38.10;74.90
22680;DHT22;11507;44.858;10.374;2022-07-06T11:42:15;38.40;76.10
22680;DHT22;11507;44.858;10.374;2022-07-06T11:44:43;38.70;76.90
22680;DHT22;11507;44.858;10.374;2022-07-06T11:47:11;38.80;73.60
22680;DHT22;11507;44.858;10.374;2022-07-06T11:49:40;38.90;71.90
22680;DHT22;11507;44.858;10.374;2022-07-06T11:52:14;39.10;74.50
22680;DHT22;11507;44.858;10.374;2022-07-06T11:54:41;39.30;74.10
22680;DHT22;11507;44.858;10.374;2022-07-06T11:57:10;39.50;71.50
22680;DHT22;11507;44.858;10.374;2022-07-06T11:59:38;39.50;68.70
22680;DHT22;11507;44.858;10.374;2022-07-06T12:04:33;39.60;68.80
22680;DHT22;11507;44.858;10.374;2022-07-06T12:07:01;39.90;69.80
22680;DHT22;11507;44.858;10.374;2022-07-06T12:09:39;40.20;66.70
22680;DHT22;11507;44.858;10.374;2022-07-06T12:12:06;40.20;67.00
22680;DHT22;11507;44.858;10.374;2022-07-06T12:14:34;40.10;65.30
22680;DHT22;11507;44.858;10.374;2022-07-06T12:17:08;39.90;67.20
22680;DHT22;11507;44.858;10.374;2022-07-06T12:19:36;39.60;68.00
22680;DHT22;11507;44.858;10.374;2022-07-06T12:22:04;39.50;65.90
22680;DHT22;11507;44.858;10.374;2022-07-06T12:24:32;39.80;67.60
22680;DHT22;11507;44.858;10.374;2022-07-06T12:27:11;40.00;63.10
22680;DHT22;11507;44.858;10.374;2022-07-06T12:29:38;40.20;61.70
22680;DHT22;11507;44.858;10.374;2022-07-06T12:32:04;40.50;62.50
22680;DHT22;11507;44.858;10.374;2022-07-06T12:34:33;40.70;64.40
22680;DHT22;11507;44.858;10.374;2022-07-06T12:37:07;41.10;62.20
22680;DHT22;11507;44.858;10.374;2022-07-06T12:39:42;41.20;60.00
22680;DHT22;11507;44.858;10.374;2022-07-06T12:42:09;41.50;60.70
22680;DHT22;11507;44.858;10.374;2022-07-06T12:44:50;41.50;59.50
22680;DHT22;11507;44.858;10.374;2022-07-06T12:47:22;41.40;60.20
22680;DHT22;11507;44.858;10.374;2022-07-06T12:50:04;41.50;59.70
22680;DHT22;11507;44.858;10.374;2022-07-06T12:52:31;41.90;61.00
22680;DHT22;11507;44.858;10.374;2022-07-06T12:55:00;42.10;58.50
22680;DHT22;11507;44.858;10.374;2022-07-06T12:57:26;41.60;59.00
22680;DHT22;11507;44.858;10.374;2022-07-06T13:05:05;41.90;58.70
22680;DHT22;11507;44.858;10.374;2022-07-06T13:07:33;41.50;58.50
22680;DHT22;11507;44.858;10.374;2022-07-06T13:10:05;41.70;58.00
22680;DHT22;11507;44.858;10.374;2022-07-06T13:12:31;41.90;57.80
22680;DHT22;11507;44.858;10.374;2022-07-06T13:14:58;41.70;59.90
22680;DHT22;11507;44.858;10.374;2022-07-06T13:17:25;41.90;57.60
22680;DHT22;11507;44.858;10.374;2022-07-06T13:19:51;42.00;57.20
22680;DHT22;11507;44.858;10.374;2022-07-06T13:22:18;42.30;56.20
22680;DHT22;11507;44.858;10.374;2022-07-06T13:24:44;42.10;56.60
22680;DHT22;11507;44.858;10.374;2022-07-06T13:27:10;42.30;54.30
22680;DHT22;11507;44.858;10.374;2022-07-06T13:29:38;41.90;57.70
22680;DHT22;11507;44.858;10.374;2022-07-06T13:32:04;41.40;56.60
22680;DHT22;11507;44.858;10.374;2022-07-06T13:34:30;41.20;57.80
22680;DHT22;11507;44.858;10.374;2022-07-06T13:36:56;41.40;58.40
22680;DHT22;11507;44.858;10.374;2022-07-06T13:39:22;41.90;57.90
22680;DHT22;11507;44.858;10.374;2022-07-06T13:41:49;42.10;57.30
22680;DHT22;11507;44.858;10.374;2022-07-06T13:44:15;42.40;54.70
22680;DHT22;11507;44.858;10.374;2022-07-06T13:46:43;42.30;53.90
22680;DHT22;11507;44.858;10.374;2022-07-06T13:49:08;42.30;56.10
22680;DHT22;11507;44.858;10.374;2022-07-06T13:51:35;41.80;54.40
22680;DHT22;11507;44.858;10.374;2022-07-06T13:54:01;41.50;55.70
22680;DHT22;11507;44.858;10.374;2022-07-06T13:56:28;41.30;56.00
22680;DHT22;11507;44.858;10.374;2022-07-06T13:58:54;41.10;55.60
22680;DHT22;11507;44.858;10.374;2022-07-06T14:01:20;40.70;54.30
22680;DHT22;11507;44.858;10.374;2022-07-06T14:03:46;40.60;57.50
22680;DHT22;11507;44.858;10.374;2022-07-06T14:06:12;40.10;57.20
22680;DHT22;11507;44.858;10.374;2022-07-06T14:08:39;39.80;57.80
22680;DHT22;11507;44.858;10.374;2022-07-06T14:11:06;39.50;59.80
22680;DHT22;11507;44.858;10.374;2022-07-06T14:13:33;39.20;59.00
22680;DHT22;11507;44.858;10.374;2022-07-06T14:16:00;38.80;59.80
22680;DHT22;11507;44.858;10.374;2022-07-06T14:18:26;38.10;59.40
22680;DHT22;11507;44.858;10.374;2022-07-06T14:20:52;37.60;64.30
22680;DHT22;11507;44.858;10.374;2022-07-06T14:23:20;37.30;64.80
22680;DHT22;11507;44.858;10.374;2022-07-06T14:25:47;36.90;63.30
22680;DHT22;11507;44.858;10.374;2022-07-06T14:28:13;36.70;64.80
22680;DHT22;11507;44.858;10.374;2022-07-06T14:30:40;36.50;65.90
22680;DHT22;11507;44.858;10.374;2022-07-06T14:33:07;36.30;64.60
22680;DHT22;11507;44.858;10.374;2022-07-06T14:35:35;36.10;66.00
22680;DHT22;11507;44.858;10.374;2022-07-06T14:38:03;35.90;67.30
22680;DHT22;11507;44.858;10.374;2022-07-06T14:40:30;35.50;68.30
22680;DHT22;11507;44.858;10.374;2022-07-06T14:42:58;35.20;67.40
22680;DHT22;11507;44.858;10.374;2022-07-06T14:45:24;35.00;70.30
22680;DHT22;11507;44.858;10.374;2022-07-06T14:47:50;34.80;70.10
22680;DHT22;11507;44.858;10.374;2022-07-06T14:50:18;34.50;71.00
22680;DHT22;11507;44.858;10.374;2022-07-06T14:52:44;33.90;73.00
22680;DHT22;11507;44.858;10.374;2022-07-06T14:55:10;33.80;74.10
22680;DHT22;11507;44.858;10.374;2022-07-06T14:57:36;33.60;74.90
22680;DHT22;11507;44.858;10.374;2022-07-06T15:00:03;33.60;75.10
22680;DHT22;11507;44.858;10.374;2022-07-06T15:02:30;33.50;75.50
22680;DHT22;11507;44.858;10.374;2022-07-06T15:04:56;33.50;74.70
22680;DHT22;11507;44.858;10.374;2022-07-06T15:07:22;33.50;75.80
22680;DHT22;11507;44.858;10.374;2022-07-06T15:09:48;33.50;76.70
22680;DHT22;11507;44.858;10.374;2022-07-06T15:12:14;33.50;77.00
22680;DHT22;11507;44.858;10.374;2022-07-06T15:14:40;33.50;79.00
22680;DHT22;11507;44.858;10.374;2022-07-06T15:17:06;33.30;77.30
22680;DHT22;11507;44.858;10.374;2022-07-06T15:19:32;33.30;78.00
22680;DHT22;11507;44.858;10.374;2022-07-06T15:21:58;33.30;79.30
22680;DHT22;11507;44.858;10.374;2022-07-06T15:24:24;33.60;82.30
22680;DHT22;11507;44.858;10.374;2022-07-06T15:26:51;34.00;79.20
22680;DHT22;11507;44.858;10.374;2022-07-06T15:29:17;34.10;78.00
22680;DHT22;11507;44.858;10.374;2022-07-06T15:31:43;34.30;75.50